createdAt,value
2022-10-12T00:01:54.839Z,42.70
2022-10-12T00:04:22.563Z,42.03
2022-10-12T00:06:50.182Z,44.00
2022-10-12T00:09:17.855Z,44.25
2022-10-12T00:11:45.482Z,41.17
2022-10-12T00:14:14.592Z,52.72
2022-10-12T00:16:42.201Z,46.15
2022-10-12T00:19:14.196Z,48.60
2022-10-12T00:21:41.854Z,48.25
2022-10-12T00:24:10.884Z,42.80
2022-10-12T00:26:38.554Z,49.80
2022-10-12T00:29:06.250Z,49.80
2022-10-12T00:31:35.327Z,48.20
2022-10-12T00:34:04.773Z,58.65
2022-10-12T00:36:35.664Z,49.47
2022-10-12T00:39:06.583Z,57.75
2022-10-12T00:41:38.338Z,55.50
2022-10-12T00:44:36.388Z,55.83
2022-10-12T00:47:10.044Z,48.85
2022-10-12T00:49:38.207Z,53.85
2022-10-12T00:52:10.862Z,49.30
2022-10-12T00:54:42.808Z,60.78
2022-10-12T00:57:12.626Z,49.75
2022-10-12T00:59:45.372Z,54.08
2022-10-12T01:02:15.192Z,52.58
2022-10-12T01:04:43.515Z,52.67
2022-10-12T01:07:11.573Z,54.30
2022-10-12T01:09:39.255Z,50.42
2022-10-12T01:12:09.230Z,52.53
2022-10-12T01:14:37.151Z,50.63
2022-10-12T01:17:14.725Z,48.80
2022-10-12T01:20:23.034Z,47.65
2022-10-12T01:23:05.367Z,46.35
2022-10-12T01:25:43.186Z,50.55
2022-10-12T01:28:20.314Z,44.65
2022-10-12T01:30:58.225Z,48.08
2022-10-12T01:33:33.787Z,51.42
2022-10-12T01:38:42.615Z,49.47
2022-10-12T01:41:17.110Z,49.00
2022-10-12T01:43:46.739Z,63.05
2022-10-12T01:46:47.346Z,59.58
2022-10-12T01:49:18.097Z,51.42
2022-10-12T01:51:59.497Z,54.65
2022-10-12T01:54:35.690Z,56.72
2022-10-12T01:57:09.212Z,48.45
2022-10-12T01:59:48.047Z,54.20
2022-10-12T02:02:27.082Z,52.60
2022-10-12T02:05:03.725Z,53.97
2022-10-12T02:07:42.280Z,53.65
2022-10-12T02:10:16.675Z,66.95
2022-10-12T02:12:46.872Z,61.33
2022-10-12T02:15:16.503Z,58.50
2022-10-12T02:17:49.026Z,60.72
2022-10-12T02:20:19.342Z,71.75
2022-10-12T02:22:49.803Z,79.30
2022-10-12T02:25:21.666Z,67.57
2022-10-12T02:27:53.598Z,68.13
2022-10-12T02:30:21.489Z,75.03
2022-10-12T02:32:55.368Z,69.80
2022-10-12T02:35:28.942Z,76.30
2022-10-12T02:38:02.362Z,83.55
2022-10-12T02:40:35.628Z,76.63
2022-10-12T02:43:11.142Z,78.43
2022-10-12T02:45:42.532Z,78.32
2022-10-12T02:48:14.819Z,86.80
2022-10-12T02:50:42.897Z,79.30
2022-10-12T02:53:12.612Z,88.38
2022-10-12T02:55:48.858Z,88.30
2022-10-12T02:58:17.127Z,78.25
2022-10-12T03:00:44.772Z,88.57
2022-10-12T03:03:14.152Z,95.82
2022-10-12T03:05:41.799Z,96.47
2022-10-12T03:08:09.441Z,100.25
2022-10-12T03:10:37.084Z,97.18
2022-10-12T03:13:05.161Z,95.07
2022-10-12T03:15:32.794Z,90.63
2022-10-12T03:18:00.697Z,87.70
2022-10-12T03:20:29.721Z,97.85
2022-10-12T03:22:57.421Z,103.70
2022-10-12T03:25:25.185Z,91.85
2022-10-12T03:27:52.848Z,101.47
2022-10-12T03:30:20.559Z,102.55
2022-10-12T03:32:48.429Z,119.93
2022-10-12T03:35:17.634Z,106.03
2022-10-12T03:37:46.660Z,110.82
2022-10-12T03:40:14.413Z,108.20
2022-10-12T03:42:42.030Z,107.15
2022-10-12T03:45:10.383Z,99.90
2022-10-12T03:47:38.516Z,126.63
2022-10-12T03:50:07.202Z,107.82
2022-10-12T03:52:35.038Z,136.40
2022-10-12T03:55:04.143Z,115.80
2022-10-12T03:57:31.784Z,117.78
2022-10-12T03:59:59.471Z,130.20
2022-10-12T04:02:27.127Z,130.75
2022-10-12T04:04:54.900Z,134.25
2022-10-12T04:07:22.568Z,120.75
2022-10-12T04:09:50.628Z,126.38
2022-10-12T04:12:19.631Z,125.10
2022-10-12T04:14:47.292Z,121.28
2022-10-12T04:17:16.175Z,130.07
2022-10-12T04:19:44.123Z,132.27
2022-10-12T04:22:12.152Z,124.85
2022-10-12T04:24:39.849Z,126.60
2022-10-12T04:27:07.558Z,128.13
2022-10-12T04:29:37.141Z,112.80
2022-10-12T04:32:08.779Z,136.32
2022-10-12T04:34:39.219Z,126.70
2022-10-12T04:37:06.970Z,119.68
2022-10-12T04:39:34.647Z,106.85
2022-10-12T04:42:02.354Z,123.28
2022-10-12T04:44:32.379Z,131.82
2022-10-12T04:47:01.609Z,120.05
2022-10-12T04:49:29.483Z,125.20
2022-10-12T04:51:57.096Z,118.28
2022-10-12T04:54:24.801Z,119.63
2022-10-12T04:56:52.404Z,143.55
2022-10-12T04:59:20.136Z,132.68
2022-10-12T05:01:47.803Z,160.05
2022-10-12T05:04:16.882Z,131.82
2022-10-12T05:06:44.546Z,140.60
2022-10-12T05:09:14.592Z,159.85
2022-10-12T05:11:44.613Z,147.13
2022-10-12T05:14:12.456Z,125.13
2022-10-12T05:16:40.151Z,136.40
2022-10-12T05:19:07.845Z,140.70
2022-10-12T05:21:37.089Z,135.13
2022-10-12T05:24:05.111Z,120.47
2022-10-12T05:26:32.769Z,114.78
2022-10-12T05:29:00.528Z,120.15
2022-10-12T05:31:28.243Z,111.85
2022-10-12T05:33:55.871Z,97.22
2022-10-12T05:36:23.529Z,107.40
2022-10-12T05:38:52.667Z,101.55
2022-10-12T05:41:20.344Z,102.07
2022-10-12T05:43:48.032Z,99.35
2022-10-12T05:46:15.681Z,108.78
2022-10-12T05:48:43.385Z,100.28
2022-10-12T05:51:11.117Z,104.32
2022-10-12T05:53:38.833Z,111.53
2022-10-12T05:56:08.219Z,102.35
2022-10-12T05:58:35.927Z,111.30
2022-10-12T06:01:07.901Z,110.63
2022-10-12T06:03:35.918Z,125.15
2022-10-12T06:06:04.523Z,126.57
2022-10-12T06:08:32.707Z,121.43
2022-10-12T06:11:00.553Z,112.75
2022-10-12T06:13:29.628Z,106.68
2022-10-12T06:15:58.085Z,103.45
2022-10-12T06:18:25.853Z,115.45
2022-10-12T06:21:21.023Z,108.82
2022-10-12T06:23:43.081Z,98.70
2022-10-12T06:26:10.726Z,98.00
2022-10-12T06:28:39.794Z,96.18
2022-10-12T06:31:07.549Z,91.82
2022-10-12T06:33:35.239Z,90.47
2022-10-12T06:36:03.077Z,85.95
2022-10-12T06:38:30.747Z,89.20
2022-10-12T06:40:58.383Z,85.13
2022-10-12T06:43:26.168Z,80.63
2022-10-12T06:46:00.156Z,84.82
2022-10-12T06:48:27.834Z,83.80
2022-10-12T06:50:55.707Z,77.85
2022-10-12T06:53:23.691Z,74.97
2022-10-12T06:55:51.341Z,66.07
2022-10-12T06:58:19.877Z,76.60
2022-10-12T07:00:47.548Z,67.63
2022-10-12T07:03:17.947Z,72.68
2022-10-12T07:05:45.730Z,72.10
2022-10-12T07:08:13.447Z,71.00
2022-10-12T07:10:41.146Z,66.35
2022-10-12T07:13:09.052Z,66.60
2022-10-12T07:15:36.715Z,66.47
2022-10-12T07:18:04.742Z,64.03
2022-10-12T07:20:33.808Z,70.05
2022-10-12T07:23:01.490Z,66.60
2022-10-12T07:25:29.222Z,73.95
2022-10-12T07:27:56.903Z,72.40
2022-10-12T07:30:24.652Z,76.70
2022-10-12T07:32:54.802Z,71.68
2022-10-12T07:35:22.524Z,70.47
2022-10-12T07:37:51.578Z,69.43
2022-10-12T07:40:19.273Z,63.65
2022-10-12T07:43:11.937Z,58.30
2022-10-12T07:45:34.632Z,57.35
2022-10-12T07:48:02.289Z,61.80
2022-10-12T07:50:29.995Z,60.47
2022-10-12T07:52:59.099Z,59.25
2022-10-12T07:55:26.880Z,51.25
2022-10-12T07:57:54.577Z,58.10
2022-10-12T08:00:22.373Z,56.10
2022-10-12T08:02:50.082Z,53.50
2022-10-12T08:05:21.108Z,60.67
2022-10-12T08:07:49.037Z,56.78
2022-10-12T08:10:18.969Z,47.75
2022-10-12T08:12:51.172Z,67.28
2022-10-12T08:15:20.102Z,60.20
2022-10-12T08:17:47.764Z,66.90
2022-10-12T08:20:15.639Z,59.58
2022-10-12T08:22:43.356Z,55.55
2022-10-12T08:25:11.150Z,52.95
2022-10-12T08:27:40.480Z,62.88
2022-10-12T08:30:09.474Z,50.50
2022-10-12T08:32:37.182Z,53.72
2022-10-12T08:35:05.435Z,57.80
2022-10-12T08:37:33.109Z,58.70
2022-10-12T08:40:03.370Z,55.03
2022-10-12T08:42:42.298Z,53.53
2022-10-12T08:45:30.607Z,55.20
2022-10-12T08:48:01.591Z,51.22
2022-10-12T08:50:33.965Z,47.05
2022-10-12T08:53:07.740Z,45.60
2022-10-12T08:55:40.702Z,47.42
2022-10-12T08:58:16.861Z,45.47
2022-10-12T09:00:49.944Z,41.35
2022-10-12T09:03:31.220Z,40.45
2022-10-12T09:06:08.968Z,41.88
2022-10-12T09:09:00.587Z,38.33
2022-10-12T09:11:40.591Z,36.45
2022-10-12T09:14:11.818Z,38.60
2022-10-12T09:16:45.176Z,44.53
2022-10-12T09:19:18.967Z,50.20
2022-10-12T09:21:49.509Z,50.92
2022-10-12T09:24:20.103Z,58.92
2022-10-12T09:26:51.530Z,59.17
2022-10-12T09:29:31.105Z,59.53
2022-10-12T09:32:24.946Z,53.42
2022-10-12T09:34:52.690Z,51.58
2022-10-12T09:37:22.727Z,55.17
2022-10-12T09:39:50.979Z,49.53
2022-10-12T09:42:18.674Z,52.20
2022-10-12T09:44:51.349Z,52.55
2022-10-12T09:47:29.779Z,55.30
2022-10-12T09:49:59.322Z,53.38
2022-10-12T09:52:30.886Z,53.58
2022-10-12T09:55:03.815Z,51.13
2022-10-12T09:57:35.210Z,57.57
2022-10-12T10:00:06.421Z,52.17
2022-10-12T10:02:49.427Z,57.75
2022-10-12T10:05:26.070Z,59.67
2022-10-12T10:07:54.403Z,55.40
2022-10-12T10:10:29.662Z,53.03
2022-10-12T10:13:01.274Z,49.70
2022-10-12T10:15:32.667Z,46.80
2022-10-12T10:18:03.961Z,49.28
2022-10-12T10:20:34.218Z,41.65
2022-10-12T10:23:04.704Z,44.35
2022-10-12T10:25:33.240Z,47.10
2022-10-12T10:28:21.439Z,42.67
2022-10-12T10:30:57.852Z,41.45
2022-10-12T10:33:27.468Z,36.20
2022-10-12T10:36:05.157Z,33.00
2022-10-12T10:38:46.014Z,30.73
2022-10-12T10:41:18.027Z,37.75
2022-10-12T10:43:48.302Z,31.13
2022-10-12T10:46:23.490Z,29.38
2022-10-12T10:48:56.504Z,34.33
2022-10-12T10:51:24.180Z,30.77
2022-10-12T10:53:52.502Z,30.75
2022-10-12T10:56:24.388Z,23.80
2022-10-12T10:58:56.320Z,23.33
2022-10-12T11:01:32.420Z,27.38
2022-10-12T11:04:04.435Z,24.67
2022-10-12T11:06:39.128Z,21.65
2022-10-12T11:09:12.007Z,18.97
2022-10-12T11:11:41.505Z,21.13
2022-10-12T11:14:16.078Z,17.65
2022-10-12T11:16:49.782Z,24.65
2022-10-12T11:19:36.622Z,19.55
2022-10-12T11:22:07.533Z,22.55
2022-10-12T11:24:42.992Z,19.33
2022-10-12T11:27:16.620Z,23.85
2022-10-12T11:29:44.631Z,22.13
2022-10-12T11:32:26.915Z,27.48
2022-10-12T11:34:59.269Z,17.38
2022-10-12T11:37:34.016Z,23.38
2022-10-12T11:40:03.990Z,26.17
2022-10-12T11:42:43.243Z,20.88
2022-10-12T11:45:21.804Z,22.42
2022-10-12T11:47:52.692Z,29.38
2022-10-12T11:50:30.443Z,20.90
2022-10-12T11:53:02.155Z,21.67
2022-10-12T11:55:55.629Z,24.90
2022-10-12T11:58:42.301Z,23.40
2022-10-12T12:01:44.502Z,21.02
2022-10-12T12:04:40.457Z,29.52
2022-10-12T12:07:47.330Z,21.00
2022-10-12T12:11:03.659Z,21.88
2022-10-12T12:13:31.967Z,21.83
2022-10-12T12:16:36.711Z,21.95
2022-10-12T12:19:26.633Z,24.60
2022-10-12T12:27:29.635Z,26.83
2022-10-12T12:29:58.744Z,22.55
2022-10-12T12:32:27.965Z,22.38
2022-10-12T12:35:00.625Z,26.58
2022-10-12T12:37:35.591Z,22.25
2022-10-12T12:40:05.656Z,30.25
2022-10-12T12:42:35.381Z,22.08
2022-10-12T12:45:36.312Z,22.00
2022-10-12T12:50:36.670Z,24.77
2022-10-12T12:53:09.519Z,26.23
2022-10-12T12:55:51.058Z,26.67
2022-10-12T12:58:39.204Z,24.55
2022-10-12T13:01:25.918Z,31.08
2022-10-12T13:04:30.178Z,26.02
2022-10-12T13:07:27.020Z,24.15
2022-10-12T13:10:25.568Z,27.83
2022-10-12T13:13:20.514Z,25.05
2022-10-12T13:16:03.011Z,30.40
2022-10-12T13:18:50.681Z,30.35
2022-10-12T13:21:21.370Z,21.70
2022-10-12T13:23:51.355Z,26.90
2022-10-12T13:26:24.482Z,29.20
2022-10-12T13:28:55.190Z,25.48
2022-10-12T13:31:27.181Z,22.73
2022-10-12T13:34:02.146Z,25.88
2022-10-12T13:36:32.779Z,24.50
2022-10-12T13:39:08.621Z,28.02
2022-10-12T13:41:36.878Z,27.75
2022-10-12T13:44:07.978Z,29.10
2022-10-12T13:46:40.729Z,21.70
2022-10-12T13:49:16.738Z,22.85
2022-10-12T13:51:45.836Z,32.03
2022-10-12T13:54:19.856Z,28.48
2022-10-12T13:56:51.275Z,31.20
2022-10-12T13:59:23.383Z,29.42
2022-10-12T14:01:54.029Z,30.13
2022-10-12T14:04:21.900Z,25.25
2022-10-12T14:06:57.518Z,25.42
2022-10-12T14:11:55.939Z,31.58
2022-10-12T14:14:32.226Z,27.55
2022-10-12T14:17:00.122Z,28.40
2022-10-12T14:19:37.249Z,27.38
2022-10-12T14:22:05.311Z,23.42
2022-10-12T14:24:35.788Z,23.70
2022-10-12T14:27:06.362Z,30.48
2022-10-12T14:29:41.365Z,31.35
2022-10-12T14:32:37.644Z,31.50
2022-10-12T14:35:12.486Z,27.95
2022-10-12T14:37:40.657Z,30.88
2022-10-12T14:40:29.869Z,30.55
2022-10-12T14:43:04.743Z,24.58
2022-10-12T14:45:34.140Z,34.15
2022-10-12T14:48:03.172Z,33.70
2022-10-12T14:50:32.323Z,25.30
2022-10-12T14:53:03.757Z,32.70
2022-10-12T14:55:34.076Z,23.23
2022-10-12T14:58:01.929Z,29.42
2022-10-12T15:00:31.911Z,28.63
2022-10-12T15:03:03.263Z,31.10
2022-10-12T15:05:33.567Z,32.25
2022-10-12T15:08:07.436Z,28.73
2022-10-12T15:10:36.453Z,30.00
2022-10-12T15:13:04.415Z,36.40
2022-10-12T15:15:37.249Z,34.03
2022-10-12T15:18:06.648Z,35.22
2022-10-12T15:20:35.149Z,36.97
2022-10-12T15:23:03.720Z,34.45
2022-10-12T15:25:40.030Z,31.20
2022-10-12T15:28:07.820Z,32.53
2022-10-12T15:30:52.115Z,35.88
2022-10-12T15:33:25.612Z,40.22
2022-10-12T15:35:53.470Z,37.97
2022-10-12T15:38:21.168Z,32.83
2022-10-12T15:40:51.060Z,33.35
2022-10-12T15:43:18.895Z,32.10
2022-10-12T15:45:46.789Z,31.30
2022-10-12T15:48:14.783Z,35.00
2022-10-12T15:50:46.242Z,37.38
2022-10-12T15:53:16.930Z,33.80
2022-10-12T15:55:44.852Z,33.80
2022-10-12T15:58:12.646Z,32.40
2022-10-12T16:00:40.621Z,30.33
2022-10-12T16:03:08.644Z,31.25
2022-10-12T16:05:38.330Z,29.77
2022-10-12T16:08:07.949Z,32.60
2022-10-12T16:10:39.430Z,31.55
2022-10-12T16:13:09.106Z,31.40
2022-10-12T16:15:37.348Z,31.15
2022-10-12T16:18:06.950Z,31.10
2022-10-12T16:20:37.763Z,29.60
2022-10-12T16:23:08.479Z,29.42
2022-10-12T16:25:36.852Z,35.45
2022-10-12T16:28:05.031Z,31.13
2022-10-12T16:30:33.306Z,30.83
2022-10-12T16:33:01.132Z,35.13
2022-10-12T16:35:29.199Z,29.92
2022-10-12T16:37:56.956Z,28.45
2022-10-12T16:40:26.190Z,28.77
2022-10-12T16:42:54.926Z,29.80
2022-10-12T16:45:23.165Z,36.97
2022-10-12T16:47:51.426Z,28.30
2022-10-12T16:50:19.731Z,30.98
2022-10-12T16:52:48.164Z,31.52
2022-10-12T16:55:16.678Z,30.92
2022-10-12T16:57:45.840Z,28.73
2022-10-12T17:00:17.242Z,29.67
2022-10-12T17:02:44.949Z,30.55
2022-10-12T17:05:14.610Z,31.42
2022-10-12T17:07:42.289Z,37.75
2022-10-12T17:10:10.748Z,25.58
2022-10-12T17:12:38.494Z,28.10
2022-10-12T17:15:08.772Z,27.90
2022-10-12T17:17:36.608Z,27.20
2022-10-12T17:20:04.874Z,27.40
2022-10-12T17:22:32.654Z,30.60
2022-10-12T17:25:00.457Z,27.60
2022-10-12T17:27:32.092Z,27.67
2022-10-12T17:30:00.454Z,25.02
2022-10-12T17:32:29.611Z,25.85
2022-10-12T17:34:57.285Z,24.30
2022-10-12T17:37:25.034Z,24.10
2022-10-12T17:39:52.869Z,27.90
2022-10-12T17:42:23.011Z,24.58
2022-10-12T17:44:50.872Z,32.75
2022-10-12T17:47:19.736Z,23.50
2022-10-12T17:49:49.083Z,27.65
2022-10-12T17:52:17.217Z,27.63
2022-10-12T17:54:45.243Z,24.15
2022-10-12T17:57:13.326Z,30.27
2022-10-12T17:59:41.175Z,30.90
2022-10-12T18:02:09.749Z,26.58
2022-10-12T18:04:37.637Z,25.55
2022-10-12T18:07:07.368Z,26.17
2022-10-12T18:09:35.225Z,23.67
2022-10-12T18:12:03.054Z,28.35
2022-10-12T18:14:30.770Z,26.65
2022-10-12T18:16:58.839Z,24.25
2022-10-12T18:19:26.679Z,25.42
2022-10-12T18:21:54.364Z,26.95
2022-10-12T18:24:23.423Z,21.98
2022-10-12T18:26:51.913Z,22.92
2022-10-12T18:29:19.822Z,31.42
2022-10-12T18:31:47.749Z,24.73
2022-10-12T18:34:15.594Z,26.15
2022-10-12T18:36:43.338Z,29.63
2022-10-12T18:39:11.150Z,27.55
2022-10-12T18:41:40.301Z,26.88
2022-10-12T18:44:09.130Z,25.15
2022-10-12T18:46:37.526Z,26.27
2022-10-12T18:49:08.038Z,25.25
2022-10-12T18:51:37.780Z,25.40
2022-10-12T18:54:06.134Z,25.60
2022-10-12T18:56:36.614Z,24.88
2022-10-12T18:59:06.018Z,26.40
2022-10-12T19:01:34.641Z,22.50
2022-10-12T19:04:03.249Z,25.00
2022-10-12T19:06:33.214Z,30.10
2022-10-12T19:09:01.861Z,31.38
2022-10-12T19:11:31.022Z,22.05
2022-10-12T19:14:00.584Z,28.15
2022-10-12T19:16:31.517Z,24.27
2022-10-12T19:19:01.692Z,27.60
2022-10-12T19:21:30.081Z,22.38
2022-10-12T19:23:58.267Z,28.67
2022-10-12T19:26:28.361Z,26.88
2022-10-12T19:28:57.453Z,23.00
2022-10-12T19:31:27.595Z,29.27
2022-10-12T19:33:58.332Z,27.52
2022-10-12T19:36:27.653Z,27.88
2022-10-12T19:38:56.729Z,24.75
2022-10-12T19:41:24.671Z,27.08
2022-10-12T19:43:53.225Z,31.13
2022-10-12T19:46:21.651Z,30.00
2022-10-12T19:48:50.925Z,28.05
2022-10-12T19:51:21.384Z,25.60
2022-10-12T19:53:49.583Z,26.65
2022-10-12T19:56:20.862Z,26.20
2022-10-12T19:58:50.435Z,26.58
2022-10-12T20:01:20.775Z,28.58
2022-10-12T20:03:50.683Z,24.92
2022-10-12T20:06:20.954Z,31.30
2022-10-12T20:08:49.654Z,29.48
2022-10-12T20:11:21.553Z,32.78
2022-10-12T20:13:52.371Z,27.55
2022-10-12T20:16:20.993Z,26.52
2022-10-12T20:18:49.628Z,27.13
2022-10-12T20:21:19.526Z,29.30
2022-10-12T20:23:49.405Z,25.38
2022-10-12T20:26:19.239Z,23.52
2022-10-12T20:28:47.481Z,24.90
2022-10-12T20:31:15.344Z,26.83
2022-10-12T20:33:43.391Z,27.00
2022-10-12T20:36:13.009Z,26.13
2022-10-12T20:38:40.885Z,24.63
2022-10-12T20:41:12.351Z,30.30
2022-10-12T20:43:44.131Z,32.15
2022-10-12T20:46:14.305Z,28.90
2022-10-12T20:48:42.518Z,27.30
2022-10-12T20:51:14.165Z,32.47
2022-10-12T20:53:42.164Z,30.90
2022-10-12T20:56:11.895Z,25.58
2022-10-12T20:58:39.718Z,30.48
2022-10-12T21:01:09.484Z,29.73
2022-10-12T21:03:37.875Z,27.33
2022-10-12T21:06:07.283Z,29.27
2022-10-12T21:08:35.653Z,35.05
2022-10-12T21:11:03.817Z,31.10
2022-10-12T21:13:34.163Z,27.15
2022-10-12T21:16:01.901Z,23.42
2022-10-12T21:18:34.005Z,28.38
2022-10-12T21:21:05.035Z,28.58
2022-10-12T21:23:32.938Z,32.45
2022-10-12T21:26:00.669Z,27.25
2022-10-12T21:28:28.488Z,27.27
2022-10-12T21:30:59.545Z,29.23
2022-10-12T21:33:28.346Z,36.00
2022-10-12T21:35:56.053Z,28.63
2022-10-12T21:38:24.060Z,28.33
2022-10-12T21:40:52.340Z,37.92
2022-10-12T21:43:20.144Z,29.30
2022-10-12T21:45:47.925Z,27.80
2022-10-12T21:48:16.993Z,29.20
2022-10-12T21:50:44.789Z,33.22
2022-10-12T21:53:13.701Z,30.50
2022-10-12T21:55:41.448Z,30.92
2022-10-12T21:58:09.149Z,25.48
2022-10-12T22:00:36.928Z,35.28
2022-10-12T22:03:04.786Z,27.70
2022-10-12T22:05:39.775Z,28.23
2022-10-12T22:08:07.830Z,35.00
2022-10-12T22:10:36.316Z,30.85
2022-10-12T22:13:04.084Z,31.73
2022-10-12T22:15:31.793Z,30.50
2022-10-12T22:18:00.627Z,27.40
2022-10-12T22:20:28.332Z,29.17
2022-10-12T22:22:57.551Z,28.40
2022-10-12T22:25:25.227Z,28.75
2022-10-12T22:27:52.967Z,24.25
2022-10-12T22:30:20.668Z,31.15
2022-10-12T22:32:48.653Z,26.50
2022-10-12T22:35:16.445Z,31.75
2022-10-12T22:37:44.128Z,29.40
2022-10-12T22:40:13.783Z,31.17
2022-10-12T22:42:41.527Z,23.67
2022-10-12T22:45:10.367Z,24.48
2022-10-12T22:47:38.048Z,26.63
2022-10-12T22:50:06.440Z,25.70
2022-10-12T22:52:34.504Z,29.88
2022-10-12T22:55:02.349Z,27.45
2022-10-12T22:57:32.298Z,29.67
2022-10-12T23:07:38.378Z,29.55
2022-10-12T23:10:06.849Z,27.85
2022-10-12T23:12:34.547Z,33.78
2022-10-12T23:15:02.262Z,36.85
2022-10-12T23:17:29.924Z,37.65
2022-10-12T23:19:57.686Z,39.05
2022-10-12T23:22:26.773Z,33.78
2022-10-12T23:24:54.553Z,38.15
2022-10-12T23:27:22.446Z,28.13
2022-10-12T23:29:50.462Z,29.15
2022-10-12T23:32:18.710Z,31.75
2022-10-12T23:34:46.677Z,31.55
2022-10-12T23:37:14.362Z,29.65
2022-10-12T23:39:43.416Z,33.33
2022-10-12T23:42:11.122Z,30.13
2022-10-12T23:44:38.794Z,28.60
2022-10-12T23:47:06.582Z,25.55
2022-10-12T23:49:34.233Z,26.77
2022-10-12T23:52:01.956Z,32.00
2022-10-12T23:54:29.651Z,28.73
2022-10-12T23:56:58.676Z,28.23
2022-10-12T23:59:26.479Z,33.45
